createdAt,value
2022-12-23T00:02:03.865Z,78.11
2022-12-23T00:04:32.533Z,77.85
2022-12-23T00:07:00.393Z,78.07
2022-12-23T00:09:28.255Z,78.07
2022-12-23T00:12:14.710Z,78.03
2022-12-23T00:15:01.538Z,77.80
2022-12-23T00:17:29.412Z,77.95
2022-12-23T00:19:57.285Z,77.84
2022-12-23T00:22:45.151Z,77.79
2022-12-23T00:25:13.057Z,78.04
2022-12-23T00:27:41.016Z,78.08
2022-12-23T00:30:10.301Z,78.14
2022-12-23T00:32:38.168Z,77.96
2022-12-23T00:35:06.277Z,77.90
2022-12-23T00:37:34.289Z,77.99
2022-12-23T00:40:20.981Z,78.17
2022-12-23T00:42:54.873Z,77.91
2022-12-23T00:45:22.785Z,78.03
2022-12-23T00:48:09.124Z,77.77
2022-12-23T00:50:38.156Z,77.81
2022-12-23T00:53:06.840Z,77.88
2022-12-23T00:55:34.736Z,78.04
2022-12-23T00:58:02.636Z,78.01
2022-12-23T01:00:49.181Z,78.13
2022-12-23T01:03:36.087Z,78.14
2022-12-23T01:06:04.134Z,78.07
2022-12-23T01:08:32.026Z,78.12
2022-12-23T01:11:03.259Z,77.78
2022-12-23T01:13:31.169Z,77.84
2022-12-23T01:16:11.785Z,77.63
2022-12-23T01:18:43.203Z,77.72
2022-12-23T01:21:11.156Z,78.32
2022-12-23T01:23:39.128Z,78.18
2022-12-23T01:26:07.889Z,77.94
2022-12-23T01:28:36.359Z,78.05
2022-12-23T01:31:05.468Z,78.01
2022-12-23T01:33:33.702Z,77.83
2022-12-23T01:36:02.489Z,77.91
2022-12-23T01:38:30.699Z,78.00
2022-12-23T01:40:58.581Z,77.87
2022-12-23T01:43:45.079Z,77.90
2022-12-23T01:46:13.083Z,77.83
2022-12-23T01:48:42.115Z,77.79
2022-12-23T01:51:18.582Z,77.69
2022-12-23T01:53:49.910Z,77.92
2022-12-23T01:56:32.657Z,78.14
2022-12-23T01:59:02.547Z,77.94
2022-12-23T02:01:49.111Z,77.92
2022-12-23T02:04:18.847Z,78.18
2022-12-23T02:07:07.320Z,78.27
2022-12-23T02:09:39.547Z,78.57
2022-12-23T02:12:26.441Z,78.77
2022-12-23T02:15:32.482Z,78.99
2022-12-23T02:18:03.433Z,79.06
2022-12-23T02:20:46.711Z,79.13
2022-12-23T02:23:14.643Z,79.50
2022-12-23T02:25:54.713Z,79.61
2022-12-23T02:28:41.512Z,79.55
2022-12-23T02:31:27.670Z,79.77
2022-12-23T02:34:02.787Z,79.84
2022-12-23T02:36:50.014Z,80.47
2022-12-23T02:39:36.033Z,80.22
2022-12-23T02:42:08.161Z,80.13
2022-12-23T02:44:38.917Z,80.12
2022-12-23T02:47:11.380Z,80.54
2022-12-23T02:49:41.235Z,80.71
2022-12-23T02:52:13.143Z,80.48
2022-12-23T02:54:44.292Z,80.91
2022-12-23T02:57:13.575Z,80.89
2022-12-23T02:59:45.033Z,80.91
2022-12-23T03:02:13.081Z,80.97
2022-12-23T03:04:42.432Z,80.65
2022-12-23T03:07:23.788Z,80.95
2022-12-23T03:09:58.217Z,81.03
2022-12-23T03:12:35.304Z,81.15
2022-12-23T03:15:23.403Z,81.28
2022-12-23T03:18:05.382Z,81.36
2022-12-23T03:20:39.452Z,81.58
2022-12-23T03:23:13.572Z,81.32
2022-12-23T03:25:52.374Z,81.32
2022-12-23T03:28:24.453Z,81.66
2022-12-23T03:30:56.308Z,81.56
2022-12-23T03:33:27.167Z,81.52
2022-12-23T03:35:58.494Z,81.25
2022-12-23T03:38:26.852Z,81.47
2022-12-23T03:40:57.327Z,81.13
2022-12-23T03:43:27.663Z,81.44
2022-12-23T03:46:01.264Z,81.71
2022-12-23T03:48:29.132Z,81.58
2022-12-23T03:50:59.807Z,81.66
2022-12-23T03:53:32.553Z,81.83
2022-12-23T03:56:03.543Z,81.44
2022-12-23T03:58:38.092Z,81.26
2022-12-23T04:01:12.667Z,81.61
2022-12-23T04:03:50.342Z,81.52
2022-12-23T04:06:20.299Z,81.67
2022-12-23T04:08:49.180Z,81.53
2022-12-23T04:11:17.255Z,81.53
2022-12-23T04:13:47.095Z,81.39
2022-12-23T04:16:15.270Z,81.39
2022-12-23T04:18:43.230Z,81.33
2022-12-23T04:21:11.085Z,81.44
2022-12-23T04:23:40.493Z,81.20
2022-12-23T04:26:08.423Z,81.40
2022-12-23T04:28:36.310Z,81.44
2022-12-23T04:31:04.385Z,81.43
2022-12-23T04:33:32.319Z,81.35
2022-12-23T04:36:00.803Z,81.50
2022-12-23T04:38:28.852Z,81.01
2022-12-23T04:40:56.717Z,81.39
2022-12-23T04:43:24.559Z,81.58
2022-12-23T04:45:52.820Z,81.49
2022-12-23T04:48:20.807Z,81.48
2022-12-23T04:50:48.701Z,81.51
2022-12-23T04:53:16.712Z,81.55
2022-12-23T04:55:44.605Z,81.51
2022-12-23T04:58:12.472Z,81.41
2022-12-23T05:00:40.403Z,81.52
2022-12-23T05:03:08.520Z,81.61
2022-12-23T05:05:36.540Z,81.67
2022-12-23T05:08:05.163Z,81.62
2022-12-23T05:10:33.041Z,81.58
2022-12-23T05:13:00.911Z,81.49
2022-12-23T05:15:28.779Z,81.57
2022-12-23T05:17:56.650Z,81.50
2022-12-23T05:20:24.527Z,81.51
2022-12-23T05:22:52.396Z,81.88
2022-12-23T05:25:20.261Z,81.86
2022-12-23T05:27:48.113Z,82.22
2022-12-23T05:30:16.035Z,81.86
2022-12-23T05:32:43.913Z,82.18
2022-12-23T05:35:11.960Z,81.96
2022-12-23T05:37:39.819Z,82.03
2022-12-23T05:40:08.045Z,81.90
2022-12-23T05:42:36.018Z,81.91
2022-12-23T05:45:04.112Z,81.75
2022-12-23T05:47:32.024Z,82.08
2022-12-23T05:49:59.934Z,82.10
2022-12-23T05:52:27.825Z,82.30
2022-12-23T05:54:55.711Z,82.36
2022-12-23T05:57:23.573Z,82.26
2022-12-23T05:59:51.444Z,82.20
2022-12-23T06:02:20.685Z,81.97
2022-12-23T06:04:48.737Z,82.25
2022-12-23T06:07:17.109Z,81.75
2022-12-23T06:09:45.012Z,81.86
2022-12-23T06:12:13.111Z,82.05
2022-12-23T06:14:40.974Z,81.72
2022-12-23T06:17:08.950Z,81.63
2022-12-23T06:19:36.901Z,81.71
2022-12-23T06:22:04.865Z,81.67
2022-12-23T06:24:32.808Z,81.55
2022-12-23T06:27:00.815Z,81.87
2022-12-23T06:29:29.439Z,81.85
2022-12-23T06:31:57.373Z,81.60
2022-12-23T06:34:25.369Z,81.59
2022-12-23T06:36:53.280Z,81.65
2022-12-23T06:39:21.218Z,81.63
2022-12-23T06:41:49.153Z,81.72
2022-12-23T06:44:17.023Z,81.17
2022-12-23T06:46:44.904Z,81.60
2022-12-23T06:49:13.754Z,81.29
2022-12-23T06:51:42.110Z,81.29
2022-12-23T06:54:11.918Z,81.50
2022-12-23T06:56:39.855Z,81.36
2022-12-23T06:59:07.780Z,81.28
2022-12-23T07:01:35.751Z,81.20
2022-12-23T07:04:03.889Z,81.10
2022-12-23T07:06:31.854Z,81.07
2022-12-23T07:08:59.747Z,81.28
2022-12-23T07:11:27.612Z,81.28
2022-12-23T07:13:55.479Z,81.22
2022-12-23T07:16:23.396Z,81.36
2022-12-23T07:18:51.348Z,81.44
2022-12-23T07:21:28.336Z,81.21
2022-12-23T07:23:57.215Z,81.09
2022-12-23T07:26:25.052Z,81.21
2022-12-23T07:28:52.945Z,81.22
2022-12-23T07:31:20.906Z,81.21
2022-12-23T07:33:48.976Z,81.19
2022-12-23T07:36:16.917Z,81.17
2022-12-23T07:38:44.871Z,81.11
2022-12-23T07:41:12.783Z,81.05
2022-12-23T07:43:40.685Z,80.91
2022-12-23T07:46:09.708Z,80.70
2022-12-23T07:48:39.506Z,80.82
2022-12-23T07:51:07.496Z,80.91
2022-12-23T07:53:35.549Z,80.72
2022-12-23T07:56:03.831Z,80.84
2022-12-23T07:58:31.711Z,80.80
2022-12-23T08:01:03.260Z,80.52
2022-12-23T08:03:31.697Z,80.40
2022-12-23T08:06:09.627Z,80.32
2022-12-23T08:08:37.522Z,80.44
2022-12-23T08:11:06.682Z,80.45
2022-12-23T08:13:35.788Z,80.10
2022-12-23T08:16:04.910Z,80.14
2022-12-23T08:18:34.543Z,79.99
2022-12-23T08:21:03.736Z,79.92
2022-12-23T08:23:32.271Z,79.86
2022-12-23T08:26:01.742Z,79.89
2022-12-23T08:28:29.674Z,79.90
2022-12-23T08:31:07.320Z,79.94
2022-12-23T08:33:36.838Z,80.12
2022-12-23T08:36:05.535Z,79.96
2022-12-23T08:38:33.451Z,80.06
2022-12-23T08:41:01.330Z,79.83
2022-12-23T08:43:35.590Z,79.82
2022-12-23T08:46:04.809Z,79.87
2022-12-23T08:48:33.217Z,79.68
2022-12-23T08:51:09.083Z,79.83
2022-12-23T08:53:37.909Z,79.65
2022-12-23T08:56:07.267Z,79.39
2022-12-23T08:58:39.167Z,79.29
2022-12-23T09:01:08.078Z,79.41
2022-12-23T09:03:36.766Z,79.43
2022-12-23T09:06:09.720Z,79.35
2022-12-23T09:08:37.903Z,79.36
2022-12-23T09:11:08.414Z,79.29
2022-12-23T09:13:36.318Z,79.21
2022-12-23T09:16:04.628Z,79.23
2022-12-23T09:18:32.712Z,79.18
2022-12-23T09:21:01.656Z,78.98
2022-12-23T09:23:29.712Z,78.79
2022-12-23T09:25:57.643Z,79.13
2022-12-23T09:28:26.195Z,79.00
2022-12-23T09:30:54.080Z,78.98
2022-12-23T09:33:22.214Z,79.14
2022-12-23T09:35:50.097Z,79.15
2022-12-23T09:38:17.991Z,79.09
2022-12-23T09:40:45.879Z,79.19
2022-12-23T09:43:19.548Z,79.19
2022-12-23T09:45:47.425Z,79.06
2022-12-23T09:48:18.496Z,78.96
2022-12-23T09:50:46.884Z,79.16
2022-12-23T09:53:14.720Z,79.24
2022-12-23T09:55:45.613Z,79.25
2022-12-23T09:58:19.760Z,79.25
2022-12-23T10:00:54.133Z,79.24
2022-12-23T10:03:28.550Z,79.25
2022-12-23T10:06:16.924Z,79.34
2022-12-23T10:08:45.847Z,79.34
2022-12-23T10:11:23.121Z,79.12
2022-12-23T10:13:57.214Z,79.25
2022-12-23T10:16:32.480Z,79.33
2022-12-23T10:19:06.684Z,79.53
2022-12-23T10:21:53.538Z,79.44
2022-12-23T10:24:25.603Z,79.71
2022-12-23T10:26:55.007Z,79.35
2022-12-23T10:29:24.435Z,79.65
2022-12-23T10:31:56.874Z,79.43
2022-12-23T10:34:24.839Z,79.62
2022-12-23T10:36:55.727Z,79.77
2022-12-23T10:39:46.271Z,79.83
2022-12-23T10:42:26.458Z,80.19
2022-12-23T10:45:06.686Z,80.00
2022-12-23T10:47:53.433Z,80.22
2022-12-23T10:50:21.281Z,80.14
2022-12-23T10:52:49.751Z,80.33
2022-12-23T10:55:31.370Z,80.47
2022-12-23T10:58:19.979Z,80.52
2022-12-23T11:00:52.078Z,80.57
2022-12-23T11:03:31.712Z,80.46
2022-12-23T11:06:00.514Z,80.47
2022-12-23T11:08:30.337Z,80.34
2022-12-23T11:11:00.032Z,80.33
2022-12-23T11:13:39.056Z,80.39
2022-12-23T11:16:12.966Z,80.50
2022-12-23T11:18:52.368Z,80.56
2022-12-23T11:21:20.283Z,80.61
2022-12-23T11:23:48.208Z,80.61
2022-12-23T11:29:04.646Z,80.71
2022-12-23T11:31:35.683Z,80.51
2022-12-23T11:34:07.490Z,80.83
2022-12-23T11:36:35.748Z,80.84
2022-12-23T11:39:10.200Z,80.64
2022-12-23T11:41:47.949Z,80.82
2022-12-23T11:44:37.932Z,80.83
2022-12-23T11:47:29.513Z,80.93
2022-12-23T11:50:03.655Z,80.70
2022-12-23T11:52:33.657Z,80.90
2022-12-23T11:55:04.894Z,80.75
2022-12-23T11:57:48.873Z,80.64
2022-12-23T12:00:23.505Z,80.89
2022-12-23T12:02:59.162Z,80.58
2022-12-23T12:05:36.358Z,80.50
2022-12-23T12:08:12.157Z,80.17
2022-12-23T12:10:40.946Z,80.45
2022-12-23T12:13:31.442Z,80.40
2022-12-23T12:16:24.287Z,80.56
2022-12-23T12:18:56.127Z,80.49
2022-12-23T12:21:26.559Z,80.28
2022-12-23T12:24:18.307Z,80.46
2022-12-23T12:26:51.651Z,80.27
2022-12-23T12:29:43.855Z,80.35
2022-12-23T12:32:27.693Z,80.16
2022-12-23T12:35:05.165Z,80.13
2022-12-23T12:37:40.934Z,80.13
2022-12-23T12:40:21.085Z,80.09
2022-12-23T12:43:29.828Z,80.11
2022-12-23T12:46:33.942Z,79.77
2022-12-23T12:49:31.480Z,79.99
2022-12-23T12:52:11.872Z,80.16
2022-12-23T12:55:02.645Z,80.13
2022-12-23T12:57:33.690Z,80.02
2022-12-23T13:00:06.427Z,79.99
2022-12-23T13:02:56.467Z,80.03
2022-12-23T13:05:46.027Z,79.96
2022-12-23T13:08:43.016Z,80.04
2022-12-23T13:11:28.940Z,80.29
2022-12-23T13:14:34.206Z,80.29
2022-12-23T13:17:17.486Z,80.29
2022-12-23T13:20:21.073Z,80.27
2022-12-23T13:22:54.127Z,80.33
2022-12-23T13:25:34.316Z,80.56
2022-12-23T13:28:28.583Z,80.54
2022-12-23T13:31:11.670Z,80.69
2022-12-23T13:33:52.556Z,80.90
2022-12-23T13:36:41.037Z,80.85
2022-12-23T13:39:36.329Z,80.76
2022-12-23T13:42:09.815Z,81.05
2022-12-23T13:44:38.725Z,80.98
2022-12-23T13:47:18.068Z,81.21
2022-12-23T13:50:13.668Z,81.17
2022-12-23T13:53:06.755Z,81.05
2022-12-23T13:55:37.583Z,80.94
2022-12-23T13:58:19.156Z,81.17
2022-12-23T14:00:59.782Z,81.49
2022-12-23T14:03:34.037Z,81.64
2022-12-23T14:06:21.351Z,81.50
2022-12-23T14:08:50.850Z,81.44
2022-12-23T14:11:25.094Z,81.33
2022-12-23T14:13:59.071Z,81.43
2022-12-23T14:16:45.276Z,81.58
2022-12-23T14:19:19.092Z,81.67
2022-12-23T14:22:13.898Z,81.79
2022-12-23T14:25:10.888Z,81.68
2022-12-23T14:28:04.335Z,81.46
2022-12-23T14:30:45.190Z,81.54
2022-12-23T14:33:23.354Z,81.59
2022-12-23T14:36:12.737Z,81.87
2022-12-23T14:38:41.247Z,81.83
2022-12-23T14:41:23.419Z,81.70
2022-12-23T14:43:56.280Z,81.67
2022-12-23T14:46:37.088Z,81.77
2022-12-23T14:49:38.941Z,82.17
2022-12-23T14:52:42.664Z,82.15
2022-12-23T14:55:31.463Z,82.01
2022-12-23T14:58:12.789Z,81.69
2022-12-23T15:00:51.097Z,81.95
2022-12-23T15:03:20.580Z,82.35
2022-12-23T15:05:51.139Z,82.30
2022-12-23T15:08:37.063Z,82.51
2022-12-23T15:11:07.241Z,82.42
2022-12-23T15:13:36.175Z,82.01
2022-12-23T15:16:04.294Z,82.17
2022-12-23T15:18:32.310Z,82.28
2022-12-23T15:21:13.449Z,82.66
2022-12-23T15:23:49.947Z,82.38
2022-12-23T15:26:19.365Z,82.44
2022-12-23T15:28:47.515Z,82.27
2022-12-23T15:31:26.581Z,82.33
2022-12-23T15:34:05.441Z,82.45
2022-12-23T15:36:37.088Z,82.41
2022-12-23T15:39:18.988Z,82.39
2022-12-23T15:41:48.422Z,82.49
2022-12-23T15:44:24.488Z,82.18
2022-12-23T15:46:53.444Z,82.38
2022-12-23T15:49:22.035Z,82.63
2022-12-23T15:52:18.095Z,82.59
2022-12-23T15:54:53.773Z,82.54
2022-12-23T15:57:26.393Z,82.31
2022-12-23T15:59:55.500Z,82.35
2022-12-23T16:05:26.693Z,82.50
2022-12-23T16:08:08.949Z,82.54
2022-12-23T16:10:37.466Z,82.35
2022-12-23T16:13:14.009Z,82.28
2022-12-23T16:15:42.031Z,82.18
2022-12-23T16:18:23.507Z,82.39
2022-12-23T16:20:55.624Z,82.46
2022-12-23T16:23:29.421Z,82.53
2022-12-23T16:26:00.019Z,82.58
2022-12-23T16:28:38.309Z,82.43
2022-12-23T16:31:08.229Z,82.25
2022-12-23T16:33:50.055Z,82.26
2022-12-23T16:36:21.110Z,82.54
2022-12-23T16:38:51.528Z,82.56
2022-12-23T16:41:20.822Z,82.48
2022-12-23T16:43:52.438Z,82.49
2022-12-23T16:46:23.533Z,82.10
2022-12-23T16:48:53.240Z,82.39
2022-12-23T16:51:24.205Z,82.43
2022-12-23T16:53:55.751Z,82.63
2022-12-23T16:56:28.297Z,82.56
2022-12-23T16:58:56.313Z,82.43
2022-12-23T17:01:29.233Z,82.27
2022-12-23T17:03:57.394Z,82.10
2022-12-23T17:06:26.468Z,81.99
2022-12-23T17:08:55.142Z,82.16
2022-12-23T17:11:51.036Z,82.22
2022-12-23T17:14:24.899Z,82.19
2022-12-23T17:16:53.101Z,82.15
2022-12-23T17:19:27.756Z,82.05
2022-12-23T17:22:02.779Z,82.05
2022-12-23T17:24:31.409Z,82.05
2022-12-23T17:26:59.438Z,82.20
2022-12-23T17:29:28.440Z,82.17
2022-12-23T17:31:56.588Z,82.14
2022-12-23T17:34:24.987Z,82.01
2022-12-23T17:36:56.439Z,82.05
2022-12-23T17:39:24.498Z,81.97
2022-12-23T17:41:52.610Z,82.03
2022-12-23T17:44:20.749Z,81.98
2022-12-23T17:46:48.831Z,81.98
2022-12-23T17:49:17.076Z,82.04
2022-12-23T17:51:45.231Z,82.18
2022-12-23T17:54:22.897Z,82.02
2022-12-23T17:56:52.094Z,81.93
2022-12-23T17:59:21.885Z,81.81
2022-12-23T18:01:50.449Z,82.05
2022-12-23T18:04:18.777Z,82.12
2022-12-23T18:06:46.796Z,82.25
2022-12-23T18:09:14.817Z,82.16
2022-12-23T18:11:45.495Z,82.02
2022-12-23T18:14:17.808Z,81.81
2022-12-23T18:16:46.527Z,81.86
2022-12-23T18:19:19.895Z,82.07
2022-12-23T18:21:48.160Z,82.12
2022-12-23T18:24:17.554Z,81.78
2022-12-23T18:26:45.792Z,81.84
2022-12-23T18:29:13.808Z,81.81
2022-12-23T18:31:50.940Z,81.66
2022-12-23T18:34:21.035Z,81.50
2022-12-23T18:36:51.931Z,81.73
2022-12-23T18:39:20.820Z,81.89
2022-12-23T18:41:49.124Z,81.91
2022-12-23T18:44:21.603Z,81.87
2022-12-23T18:46:50.620Z,81.88
2022-12-23T18:49:18.838Z,81.66
2022-12-23T18:51:47.394Z,81.69
2022-12-23T18:54:16.770Z,81.71
2022-12-23T18:56:45.000Z,81.94
2022-12-23T18:59:24.205Z,81.87
2022-12-23T19:01:58.327Z,81.90
2022-12-23T19:04:27.604Z,81.96
2022-12-23T19:06:56.638Z,81.77
2022-12-23T19:09:25.348Z,81.60
2022-12-23T19:11:54.453Z,81.69
2022-12-23T19:14:22.660Z,81.92
2022-12-23T19:16:52.411Z,81.85
2022-12-23T19:19:21.960Z,82.02
2022-12-23T19:21:50.057Z,81.83
2022-12-23T19:24:18.164Z,81.87
2022-12-23T19:26:46.153Z,81.55
2022-12-23T19:29:14.664Z,81.68
2022-12-23T19:31:42.876Z,81.70
2022-12-23T19:34:15.100Z,81.79
2022-12-23T19:36:44.383Z,81.77
2022-12-23T19:39:16.862Z,81.60
2022-12-23T19:41:45.451Z,81.50
2022-12-23T19:44:14.380Z,81.58
2022-12-23T19:46:42.551Z,81.42
2022-12-23T19:49:17.482Z,81.39
2022-12-23T19:51:48.772Z,81.50
2022-12-23T19:54:18.407Z,81.60
2022-12-23T19:56:46.566Z,81.27
2022-12-23T19:59:14.737Z,81.47
2022-12-23T20:01:46.956Z,81.38
2022-12-23T20:04:19.038Z,81.37
2022-12-23T20:06:47.082Z,81.25
2022-12-23T20:09:15.445Z,81.24
2022-12-23T20:11:48.353Z,81.42
2022-12-23T20:14:19.041Z,81.44
2022-12-23T20:16:48.489Z,81.52
2022-12-23T20:19:17.401Z,81.58
2022-12-23T20:21:45.980Z,81.39
2022-12-23T20:24:21.419Z,81.36
2022-12-23T20:26:49.516Z,81.27
2022-12-23T20:29:17.700Z,81.41
2022-12-23T20:31:45.867Z,81.42
2022-12-23T20:34:17.262Z,81.52
2022-12-23T20:36:45.500Z,81.48
2022-12-23T20:39:14.217Z,81.64
2022-12-23T20:41:42.549Z,81.28
2022-12-23T20:44:40.534Z,81.33
2022-12-23T20:46:58.747Z,81.39
2022-12-23T20:49:27.269Z,81.39
2022-12-23T20:51:55.391Z,81.58
2022-12-23T20:54:29.814Z,81.56
2022-12-23T20:57:00.497Z,81.36
2022-12-23T20:59:29.013Z,81.35
2022-12-23T21:01:59.329Z,81.14
2022-12-23T21:04:27.618Z,81.21
2022-12-23T21:06:55.724Z,81.34
2022-12-23T21:09:23.741Z,81.36
2022-12-23T21:11:51.728Z,81.28
2022-12-23T21:14:19.825Z,81.43
2022-12-23T21:16:48.056Z,81.40
2022-12-23T21:19:19.852Z,81.05
2022-12-23T21:21:48.751Z,81.26
2022-12-23T21:24:17.834Z,81.35
2022-12-23T21:26:50.278Z,81.41
2022-12-23T21:29:22.157Z,81.37
2022-12-23T21:31:50.201Z,81.44
2022-12-23T21:34:18.342Z,81.34
2022-12-23T21:36:46.565Z,81.22
2022-12-23T21:39:16.418Z,81.32
2022-12-23T21:41:44.497Z,81.34
2022-12-23T21:44:16.086Z,81.24
2022-12-23T21:46:44.224Z,81.34
2022-12-23T21:49:13.340Z,81.41
2022-12-23T21:51:42.080Z,81.33
2022-12-23T21:54:11.888Z,80.96
2022-12-23T21:56:40.941Z,81.08
2022-12-23T21:59:12.638Z,81.20
2022-12-23T22:01:42.183Z,81.34
2022-12-23T22:04:11.018Z,81.17
2022-12-23T22:06:43.766Z,81.12
2022-12-23T22:09:15.550Z,81.23
2022-12-23T22:11:44.491Z,81.18
2022-12-23T22:14:15.087Z,80.98
2022-12-23T22:16:43.535Z,81.00
2022-12-23T22:19:12.619Z,81.08
2022-12-23T22:21:42.858Z,81.28
2022-12-23T22:24:11.205Z,81.05
2022-12-23T22:26:39.769Z,81.14
2022-12-23T22:29:07.871Z,81.08
2022-12-23T22:31:40.378Z,81.03
2022-12-23T22:34:12.565Z,80.88
2022-12-23T22:36:40.731Z,81.06
2022-12-23T22:39:16.093Z,81.18
2022-12-23T22:41:49.259Z,81.14
2022-12-23T22:44:17.891Z,81.29
2022-12-23T22:46:46.356Z,81.21
2022-12-23T22:49:15.811Z,81.04
2022-12-23T22:51:44.974Z,81.00
2022-12-23T22:54:12.994Z,80.89
2022-12-23T22:56:41.030Z,81.17
2022-12-23T22:59:21.362Z,81.16
2022-12-23T23:01:51.937Z,81.12
2022-12-23T23:04:20.574Z,81.00
2022-12-23T23:06:49.333Z,81.03
2022-12-23T23:09:21.541Z,81.00
2022-12-23T23:11:50.174Z,80.76
2022-12-23T23:14:18.931Z,80.89
2022-12-23T23:16:47.009Z,80.96
2022-12-23T23:19:16.583Z,81.06
2022-12-23T23:21:44.667Z,81.05
2022-12-23T23:24:12.810Z,80.99
2022-12-23T23:26:40.929Z,81.04
2022-12-23T23:29:08.937Z,80.71
2022-12-23T23:31:42.351Z,80.79
2022-12-23T23:34:12.413Z,80.90
2022-12-23T23:36:40.824Z,80.94
2022-12-23T23:39:11.054Z,80.96
2022-12-23T23:41:39.086Z,80.88
2022-12-23T23:44:07.323Z,80.97
2022-12-23T23:46:35.555Z,80.78
2022-12-23T23:49:03.954Z,80.68
2022-12-23T23:51:32.021Z,80.80
2022-12-23T23:54:00.028Z,80.87
2022-12-23T23:56:33.833Z,80.86
2022-12-23T23:59:04.246Z,80.82
